createdAt,value
2019-06-07T00:00:43.411Z,95.30
2019-06-07T00:03:24.884Z,95.10
2019-06-07T00:05:46.253Z,95.30
2019-06-07T00:08:26.965Z,95.30
2019-06-07T00:10:49.485Z,95.60
2019-06-07T00:13:20.432Z,95.40
2019-06-07T00:15:51.582Z,95.50
2019-06-07T00:18:25.815Z,95.30
2019-06-07T00:20:54.909Z,95.40
2019-06-07T00:23:25.570Z,95.50
2019-06-07T00:25:56.235Z,95.50
2019-06-07T00:28:27.198Z,95.60
2019-06-07T00:30:58.121Z,95.70
2019-06-07T00:33:29.245Z,95.80
2019-06-07T00:35:59.806Z,95.70
2019-06-07T00:38:30.445Z,95.70
2019-06-07T00:41:02.542Z,95.60
2019-06-07T00:43:33.306Z,95.60
2019-06-07T00:46:03.843Z,95.60
2019-06-07T00:48:34.601Z,95.60
2019-06-07T00:51:05.255Z,95.60
2019-06-07T00:53:35.845Z,95.90
2019-06-07T00:56:06.358Z,96.00
2019-06-07T00:58:37.350Z,95.70
2019-06-07T01:01:07.876Z,95.90
2019-06-07T01:03:38.698Z,96.00
2019-06-07T01:06:09.390Z,96.00
2019-06-07T01:08:40.276Z,96.00
2019-06-07T01:11:11.430Z,96.00
2019-06-07T01:13:42.463Z,95.80
2019-06-07T01:16:13.788Z,96.30
2019-06-07T01:18:46.879Z,96.10
2019-06-07T01:21:21.709Z,96.10
2019-06-07T01:24:12.142Z,96.20
2019-06-07T01:26:24.150Z,96.20
2019-06-07T01:28:53.955Z,96.20
2019-06-07T01:31:27.816Z,96.20
2019-06-07T01:33:57.072Z,96.20
2019-06-07T01:36:29.534Z,96.20
2019-06-07T01:39:00.560Z,96.10
2019-06-07T01:41:33.041Z,96.20
2019-06-07T01:44:03.749Z,96.30
2019-06-07T01:46:34.414Z,96.40
2019-06-07T01:49:05.047Z,96.30
2019-06-07T01:51:35.757Z,96.30
2019-06-07T01:54:54.347Z,96.30
2019-06-07T01:56:39.645Z,96.20
2019-06-07T01:59:10.127Z,96.20
2019-06-07T02:01:41.367Z,96.20
2019-06-07T02:04:11.844Z,96.30
2019-06-07T02:06:42.385Z,96.50
2019-06-07T02:09:14.491Z,96.50
2019-06-07T02:11:45.297Z,96.50
2019-06-07T02:14:15.888Z,96.50
2019-06-07T02:16:46.476Z,96.60
2019-06-07T02:19:17.021Z,96.50
2019-06-07T02:21:47.724Z,96.50
2019-06-07T02:24:18.322Z,96.70
2019-06-07T02:26:48.750Z,96.80
2019-06-07T02:29:20.265Z,96.70
2019-06-07T02:31:51.027Z,96.80
2019-06-07T02:34:21.729Z,96.80
2019-06-07T02:36:54.159Z,96.80
2019-06-07T02:39:27.696Z,96.70
2019-06-07T02:41:57.020Z,96.70
2019-06-07T02:44:30.601Z,96.60
2019-06-07T02:46:59.887Z,96.80
2019-06-07T02:49:36.273Z,96.90
2019-06-07T02:52:02.989Z,96.90
2019-06-07T02:54:36.956Z,97.00
2019-06-07T02:57:06.285Z,97.00
2019-06-07T03:00:04.289Z,97.00
2019-06-07T03:02:09.200Z,97.00
2019-06-07T03:04:44.755Z,97.10
2019-06-07T03:07:15.101Z,97.20
2019-06-07T03:09:46.989Z,97.30
2019-06-07T03:12:20.346Z,97.20
2019-06-07T03:14:53.148Z,97.20
2019-06-07T03:17:49.767Z,97.20
2019-06-07T03:20:21.287Z,97.30
2019-06-07T03:22:52.515Z,97.30
2019-06-07T03:25:22.958Z,97.20
2019-06-07T03:27:53.833Z,97.30
2019-06-07T03:30:39.088Z,97.40
2019-06-07T03:32:56.567Z,97.30
2019-06-07T03:35:29.800Z,97.40
2019-06-07T03:37:59.646Z,97.40
2019-06-07T03:40:31.673Z,97.50
2019-06-07T03:43:02.314Z,97.50
2019-06-07T03:45:35.155Z,97.40
2019-06-07T03:48:05.428Z,97.50
2019-06-07T03:50:39.596Z,97.40
2019-06-07T03:53:08.542Z,97.60
2019-06-07T03:55:41.257Z,97.50
2019-06-07T04:00:44.337Z,97.50
2019-06-07T04:03:33.075Z,97.70
2019-06-07T04:05:48.239Z,97.60
2019-06-07T04:08:19.312Z,97.50
2019-06-07T04:10:59.613Z,97.50
2019-06-07T04:13:23.084Z,97.60
2019-06-07T04:15:53.731Z,97.50
2019-06-07T04:18:25.659Z,97.50
2019-06-07T04:20:56.308Z,97.30
2019-06-07T04:23:30.048Z,97.50
2019-06-07T04:25:59.395Z,97.30
2019-06-07T04:29:24.878Z,97.30
2019-06-07T04:31:02.849Z,97.20
2019-06-07T04:33:37.068Z,97.60
2019-06-07T04:36:05.698Z,97.50
2019-06-07T04:38:39.890Z,97.50
2019-06-07T04:41:09.384Z,97.50
2019-06-07T04:43:42.841Z,97.40
2019-06-07T04:46:15.661Z,97.10
2019-06-07T04:48:48.265Z,97.20
2019-06-07T04:51:19.918Z,97.30
2019-06-07T04:53:50.598Z,97.20
2019-06-07T04:56:21.344Z,97.40
2019-06-07T04:58:51.839Z,97.20
2019-06-07T05:01:27.633Z,97.00
2019-06-07T05:03:54.627Z,97.10
2019-06-07T05:06:25.392Z,96.90
2019-06-07T05:08:56.523Z,96.40
2019-06-07T05:11:27.387Z,95.20
2019-06-07T05:13:58.201Z,95.40
2019-06-07T05:16:30.610Z,94.00
2019-06-07T05:19:01.312Z,92.20
2019-06-07T05:21:53.658Z,89.10
2019-06-07T05:24:09.503Z,84.10
2019-06-07T05:26:39.212Z,78.00
2019-06-07T05:29:10.044Z,72.50
2019-06-07T05:31:44.923Z,68.10
2019-06-07T05:34:13.396Z,61.80
2019-06-07T05:36:45.256Z,59.60
2019-06-07T05:39:16.262Z,57.20
2019-06-07T05:41:46.855Z,56.50
2019-06-07T05:44:17.453Z,54.40
2019-06-07T05:46:48.333Z,53.60
2019-06-07T05:49:18.818Z,53.80
2019-06-07T05:51:49.246Z,53.00
2019-06-07T05:54:19.752Z,52.60
2019-06-07T05:56:50.318Z,53.00
2019-06-07T05:59:21.195Z,51.40
2019-06-07T06:02:01.929Z,50.90
2019-06-07T06:04:24.450Z,53.30
2019-06-07T06:06:55.237Z,53.50
2019-06-07T06:09:25.885Z,56.20
2019-06-07T06:12:02.233Z,56.50
2019-06-07T06:14:29.392Z,55.90
2019-06-07T06:17:00.073Z,56.90
2019-06-07T06:19:30.781Z,59.10
2019-06-07T06:22:01.604Z,60.90
2019-06-07T06:24:32.690Z,60.60
2019-06-07T06:27:28.152Z,61.10
2019-06-07T06:29:39.923Z,60.70
2019-06-07T06:32:40.976Z,60.70
2019-06-07T06:34:44.264Z,59.50
2019-06-07T06:37:13.240Z,57.90
2019-06-07T06:39:46.615Z,56.20
2019-06-07T06:42:17.348Z,55.20
2019-06-07T06:44:53.600Z,53.30
2019-06-07T06:47:20.525Z,52.60
2019-06-07T06:49:54.337Z,51.50
2019-06-07T06:52:23.996Z,50.40
2019-06-07T06:55:00.487Z,50.10
2019-06-07T06:57:27.849Z,49.40
2019-06-07T06:59:58.805Z,48.60
2019-06-07T07:02:30.144Z,47.40
2019-06-07T07:05:01.039Z,46.20
2019-06-07T07:07:32.229Z,45.50
2019-06-07T07:10:04.535Z,44.60
2019-06-07T07:12:36.120Z,44.80
2019-06-07T07:15:07.476Z,43.80
2019-06-07T07:17:50.489Z,44.10
2019-06-07T07:20:11.175Z,42.40
2019-06-07T07:22:42.804Z,41.80
2019-06-07T07:25:14.891Z,42.20
2019-06-07T07:27:47.278Z,42.40
2019-06-07T07:30:37.571Z,41.30
2019-06-07T07:32:59.033Z,42.40
2019-06-07T07:35:26.597Z,43.20
2019-06-07T07:37:59.773Z,43.90
2019-06-07T07:40:56.917Z,43.80
2019-06-07T07:43:01.796Z,44.10
2019-06-07T07:45:32.566Z,44.30
2019-06-07T07:48:15.731Z,46.90
2019-06-07T07:50:35.346Z,46.60
2019-06-07T07:53:06.679Z,46.90
2019-06-07T07:55:37.765Z,47.40
2019-06-07T07:58:08.506Z,47.00
2019-06-07T08:01:07.714Z,47.00
2019-06-07T08:03:12.303Z,47.10
2019-06-07T08:05:45.089Z,48.30
2019-06-07T08:08:15.275Z,47.70
2019-06-07T08:10:50.410Z,47.90
2019-06-07T08:13:25.571Z,48.70
2019-06-07T08:15:55.805Z,48.60
2019-06-07T08:18:23.125Z,48.40
2019-06-07T08:21:15.007Z,49.10
2019-06-07T08:23:25.996Z,50.10
2019-06-07T08:26:00.896Z,50.70
2019-06-07T08:28:29.037Z,51.50
2019-06-07T08:31:06.540Z,51.80
2019-06-07T08:33:32.268Z,52.80
2019-06-07T08:36:16.965Z,53.70
2019-06-07T08:38:47.463Z,54.60
2019-06-07T08:41:12.280Z,54.60
2019-06-07T08:43:42.088Z,54.80
2019-06-07T08:46:12.599Z,54.70
2019-06-07T08:48:43.492Z,54.60
2019-06-07T08:51:14.097Z,54.40
2019-06-07T08:54:02.359Z,53.70
2019-06-07T08:56:17.429Z,54.40
2019-06-07T08:58:48.173Z,54.80
2019-06-07T09:01:20.420Z,55.50
2019-06-07T09:03:52.072Z,55.30
2019-06-07T09:09:00.348Z,55.80
2019-06-07T09:11:29.120Z,54.90
2019-06-07T09:14:02.918Z,55.20
2019-06-07T09:16:32.168Z,55.20
2019-06-07T09:19:10.106Z,55.90
2019-06-07T09:21:35.236Z,55.30
2019-06-07T09:24:11.315Z,54.80
2019-06-07T09:26:38.469Z,53.20
2019-06-07T09:29:12.013Z,53.10
2019-06-07T09:31:52.680Z,52.20
2019-06-07T09:34:15.539Z,51.30
2019-06-07T09:36:46.679Z,52.30
2019-06-07T09:39:17.502Z,52.20
2019-06-07T09:41:50.322Z,51.80
2019-06-07T09:44:25.824Z,52.40
2019-06-07T09:47:12.770Z,52.00
2019-06-07T09:49:32.282Z,52.50
2019-06-07T09:51:59.752Z,53.20
2019-06-07T09:55:03.755Z,53.60
2019-06-07T09:57:07.049Z,53.50
2019-06-07T09:59:34.611Z,54.30
2019-06-07T10:02:08.631Z,54.70
2019-06-07T10:04:37.938Z,55.30
2019-06-07T10:07:28.117Z,55.00
2019-06-07T10:10:11.682Z,56.30
2019-06-07T10:12:15.057Z,55.00
2019-06-07T10:14:46.089Z,55.60
2019-06-07T10:17:16.783Z,55.50
2019-06-07T10:19:47.631Z,56.80
2019-06-07T10:22:18.297Z,56.80
2019-06-07T10:24:48.778Z,55.90
2019-06-07T10:27:19.428Z,56.20
2019-06-07T10:29:50.181Z,56.20
2019-06-07T10:32:20.998Z,56.10
2019-06-07T10:34:51.671Z,56.10
2019-06-07T10:37:22.378Z,57.40
2019-06-07T10:39:53.189Z,57.80
2019-06-07T10:42:24.425Z,56.70
2019-06-07T10:44:55.145Z,57.10
2019-06-07T10:47:25.891Z,56.70
2019-06-07T10:49:58.343Z,55.50
2019-06-07T10:52:29.257Z,55.70
2019-06-07T10:55:00.586Z,56.70
2019-06-07T10:57:31.613Z,56.50
2019-06-07T11:00:13.676Z,56.50
2019-06-07T11:02:44.529Z,56.90
2019-06-07T11:05:15.055Z,57.80
2019-06-07T11:07:45.565Z,56.30
2019-06-07T11:10:19.587Z,55.70
2019-06-07T11:12:48.866Z,56.00
2019-06-07T11:15:19.651Z,57.80
2019-06-07T11:17:50.542Z,57.80
2019-06-07T11:20:21.306Z,57.60
2019-06-07T11:22:51.805Z,57.20
2019-06-07T11:25:22.406Z,58.00
2019-06-07T11:27:52.974Z,57.30
2019-06-07T11:30:23.745Z,56.80
2019-06-07T11:32:54.611Z,58.20
2019-06-07T11:35:26.518Z,57.90
2019-06-07T11:37:57.407Z,56.90
2019-06-07T11:40:35.539Z,56.50
2019-06-07T11:43:01.658Z,56.90
2019-06-07T11:45:32.243Z,57.30
2019-06-07T11:48:02.844Z,57.60
2019-06-07T11:50:34.460Z,56.50
2019-06-07T11:53:06.343Z,57.00
2019-06-07T11:55:37.270Z,57.70
2019-06-07T11:58:12.698Z,57.10
2019-06-07T12:00:40.363Z,57.80
2019-06-07T12:03:11.645Z,57.50
2019-06-07T12:05:42.288Z,57.50
2019-06-07T12:08:14.037Z,58.00
2019-06-07T12:10:44.806Z,58.40
2019-06-07T12:13:17.316Z,57.10
2019-06-07T12:15:49.227Z,57.50
2019-06-07T12:18:20.181Z,57.70
2019-06-07T12:20:50.979Z,57.90
2019-06-07T12:23:21.693Z,58.10
2019-06-07T12:25:53.799Z,57.80
2019-06-07T12:28:24.635Z,58.80
2019-06-07T12:30:55.515Z,59.10
2019-06-07T12:33:26.273Z,58.90
2019-06-07T12:35:57.212Z,58.40
2019-06-07T12:38:28.031Z,57.40
2019-06-07T12:40:58.608Z,57.60
2019-06-07T12:43:29.439Z,57.60
2019-06-07T12:46:00.250Z,57.50
2019-06-07T12:48:31.256Z,58.20
2019-06-07T12:51:01.888Z,57.10
2019-06-07T12:53:32.435Z,58.70
2019-06-07T12:56:03.149Z,59.00
2019-06-07T12:58:36.242Z,59.00
2019-06-07T13:01:06.124Z,58.90
2019-06-07T13:03:36.983Z,59.30
2019-06-07T13:06:08.024Z,58.70
2019-06-07T13:08:38.552Z,58.50
2019-06-07T13:11:15.993Z,59.10
2019-06-07T13:13:42.830Z,58.90
2019-06-07T13:16:13.707Z,58.60
2019-06-07T13:18:44.402Z,59.40
2019-06-07T13:21:16.362Z,58.60
2019-06-07T13:23:48.169Z,58.90
2019-06-07T13:26:22.996Z,58.00
2019-06-07T13:28:55.180Z,58.90
2019-06-07T13:31:27.247Z,59.70
2019-06-07T13:33:58.011Z,58.20
2019-06-07T13:36:28.753Z,58.50
2019-06-07T13:38:59.687Z,58.80
2019-06-07T13:41:41.860Z,59.30
2019-06-07T13:44:03.691Z,59.20
2019-06-07T13:46:34.262Z,59.40
2019-06-07T13:49:06.185Z,59.10
2019-06-07T13:51:37.254Z,59.00
2019-06-07T13:54:07.749Z,57.50
2019-06-07T13:57:00.301Z,59.20
2019-06-07T13:59:10.994Z,58.50
2019-06-07T14:01:41.632Z,59.60
2019-06-07T14:04:12.595Z,59.70
2019-06-07T14:06:43.225Z,59.50
2019-06-07T14:09:13.849Z,59.60
2019-06-07T14:11:50.408Z,59.20
2019-06-07T14:14:17.097Z,58.30
2019-06-07T14:16:47.781Z,58.10
2019-06-07T14:19:20.308Z,58.00
2019-06-07T14:21:51.615Z,59.10
2019-06-07T14:24:22.920Z,59.20
2019-06-07T14:27:08.763Z,59.80
2019-06-07T14:29:39.456Z,59.40
2019-06-07T14:32:13.050Z,59.50
2019-06-07T14:34:43.648Z,59.00
2019-06-07T14:37:14.879Z,58.70
2019-06-07T14:39:45.811Z,59.20
2019-06-07T14:42:16.785Z,59.60
2019-06-07T14:44:47.530Z,59.60
2019-06-07T14:47:18.281Z,59.80
2019-06-07T14:49:50.141Z,59.90
2019-06-07T14:52:26.335Z,59.10
2019-06-07T14:55:00.773Z,59.40
2019-06-07T14:57:33.657Z,59.80
2019-06-07T15:00:10.773Z,60.20
2019-06-07T15:02:39.749Z,59.40
2019-06-07T15:05:10.634Z,59.20
2019-06-07T15:07:41.161Z,59.40
2019-06-07T15:10:13.482Z,58.80
2019-06-07T15:12:44.177Z,59.40
2019-06-07T15:15:15.022Z,59.00
2019-06-07T15:17:45.462Z,58.20
2019-06-07T15:20:16.540Z,57.60
2019-06-07T15:22:47.073Z,59.20
2019-06-07T15:25:17.985Z,58.60
2019-06-07T15:27:48.684Z,57.60
2019-06-07T15:30:20.297Z,57.10
2019-06-07T15:32:51.229Z,57.40
2019-06-07T15:35:22.113Z,58.10
2019-06-07T15:37:52.845Z,57.90
2019-06-07T15:40:24.068Z,58.00
2019-06-07T15:42:58.070Z,57.70
2019-06-07T15:45:33.535Z,57.30
2019-06-07T15:48:06.977Z,57.30
2019-06-07T15:50:43.276Z,56.90
2019-06-07T15:53:18.303Z,57.30
2019-06-07T15:55:52.664Z,57.20
2019-06-07T15:58:27.046Z,57.30
2019-06-07T16:01:01.611Z,58.20
2019-06-07T16:03:38.098Z,58.10
2019-06-07T16:06:09.466Z,57.50
2019-06-07T16:08:40.479Z,57.10
2019-06-07T16:11:11.342Z,57.80
2019-06-07T16:13:42.875Z,57.30
2019-06-07T16:16:13.867Z,57.50
2019-06-07T16:18:44.793Z,57.80
2019-06-07T16:21:15.357Z,57.60
2019-06-07T16:23:46.387Z,57.90
2019-06-07T16:26:17.342Z,58.20
2019-06-07T16:28:48.341Z,58.60
2019-06-07T16:31:19.196Z,58.70
2019-06-07T16:33:49.771Z,58.40
2019-06-07T16:36:20.338Z,58.30
2019-06-07T16:38:51.285Z,58.60
2019-06-07T16:41:22.046Z,58.80
2019-06-07T16:43:52.859Z,58.20
2019-06-07T16:46:24.176Z,57.60
2019-06-07T16:48:55.003Z,58.10
2019-06-07T16:51:25.996Z,58.40
2019-06-07T16:53:57.289Z,57.60
2019-06-07T16:56:28.769Z,57.50
2019-06-07T16:58:59.463Z,57.70
2019-06-07T17:01:30.216Z,57.40
2019-06-07T17:04:01.112Z,57.50
2019-06-07T17:06:32.000Z,58.20
2019-06-07T17:09:02.828Z,58.00
2019-06-07T17:11:34.824Z,57.80
2019-06-07T17:14:05.665Z,57.40
2019-06-07T17:16:36.316Z,58.30
2019-06-07T17:19:07.154Z,59.40
2019-06-07T17:21:39.164Z,60.20
2019-06-07T17:24:12.327Z,60.40
2019-06-07T17:26:44.076Z,60.80
2019-06-07T17:29:14.886Z,61.40
2019-06-07T17:31:46.409Z,61.70
2019-06-07T17:34:18.487Z,62.10
2019-06-07T17:36:50.580Z,62.30
2019-06-07T17:39:21.439Z,62.80
2019-06-07T17:42:01.752Z,63.30
2019-06-07T17:44:24.507Z,63.50
2019-06-07T17:46:55.253Z,63.80
2019-06-07T17:49:26.405Z,64.00
2019-06-07T17:51:58.605Z,64.20
2019-06-07T17:54:29.507Z,64.40
2019-06-07T17:57:00.569Z,64.60
2019-06-07T17:59:31.303Z,64.80
2019-06-07T18:02:13.940Z,64.40
2019-06-07T18:04:35.063Z,64.60
2019-06-07T18:07:05.674Z,65.00
2019-06-07T18:09:38.039Z,65.70
2019-06-07T18:12:08.564Z,66.00
2019-06-07T18:14:39.311Z,66.20
2019-06-07T18:17:10.163Z,66.70
2019-06-07T18:19:42.520Z,67.10
2019-06-07T18:22:13.790Z,67.80
2019-06-07T18:24:44.726Z,67.70
2019-06-07T18:27:15.449Z,67.80
2019-06-07T18:29:46.481Z,68.20
2019-06-07T18:32:17.540Z,68.70
2019-06-07T18:34:48.733Z,68.60
2019-06-07T18:37:19.768Z,68.80
2019-06-07T18:39:51.106Z,69.60
2019-06-07T18:42:22.207Z,69.40
2019-06-07T18:44:53.175Z,70.00
2019-06-07T18:47:23.892Z,70.30
2019-06-07T18:49:55.574Z,71.00
2019-06-07T18:52:34.628Z,71.60
2019-06-07T18:55:05.735Z,72.20
2019-06-07T18:57:36.586Z,73.00
2019-06-07T19:00:09.340Z,73.00
2019-06-07T19:02:40.061Z,73.40
2019-06-07T19:05:12.228Z,73.70
2019-06-07T19:07:42.891Z,73.60
2019-06-07T19:10:14.171Z,74.60
2019-06-07T19:12:44.699Z,74.10
2019-06-07T19:15:16.299Z,74.20
2019-06-07T19:17:46.859Z,74.60
2019-06-07T19:20:19.266Z,74.80
2019-06-07T19:22:50.177Z,75.00
2019-06-07T19:25:21.106Z,75.30
2019-06-07T19:27:52.777Z,75.80
2019-06-07T19:30:23.768Z,77.80
2019-06-07T19:32:55.059Z,79.00
2019-06-07T19:35:26.016Z,80.20
2019-06-07T19:37:57.933Z,80.20
2019-06-07T19:40:28.597Z,80.70
2019-06-07T19:43:00.467Z,80.60
2019-06-07T19:45:31.850Z,81.00
2019-06-07T19:48:02.823Z,81.30
2019-06-07T19:50:34.076Z,82.00
2019-06-07T19:53:04.842Z,82.10
2019-06-07T19:55:35.762Z,82.50
2019-06-07T19:58:06.386Z,83.00
2019-06-07T20:00:37.264Z,83.00
2019-06-07T20:03:07.753Z,83.00
2019-06-07T20:05:38.519Z,83.10
2019-06-07T20:08:09.204Z,83.90
2019-06-07T20:10:40.118Z,85.30
2019-06-07T20:13:11.138Z,86.50
2019-06-07T20:15:41.656Z,86.60
2019-06-07T20:18:12.230Z,86.90
2019-06-07T20:20:43.020Z,87.00
2019-06-07T20:23:13.589Z,87.40
2019-06-07T20:25:44.275Z,87.80
2019-06-07T20:28:14.913Z,88.20
2019-06-07T20:30:45.619Z,88.80
2019-06-07T20:33:16.289Z,88.80
2019-06-07T20:35:47.067Z,88.70
2019-06-07T20:38:17.661Z,88.70
2019-06-07T20:40:48.518Z,88.70
2019-06-07T20:43:19.150Z,89.10
2019-06-07T20:45:49.871Z,89.10
2019-06-07T20:48:20.722Z,89.40
2019-06-07T20:50:51.714Z,89.60
2019-06-07T20:53:22.529Z,90.00
2019-06-07T20:55:53.179Z,90.10
2019-06-07T20:58:24.363Z,90.20
2019-06-07T21:00:55.045Z,90.50
2019-06-07T21:03:25.745Z,90.50
2019-06-07T21:05:56.485Z,91.00
2019-06-07T21:08:27.383Z,91.10
2019-06-07T21:10:58.021Z,91.00
2019-06-07T21:13:28.696Z,90.90
2019-06-07T21:15:59.970Z,91.00
2019-06-07T21:18:30.817Z,91.00
2019-06-07T21:21:02.347Z,91.20
2019-06-07T21:23:33.178Z,91.40
2019-06-07T21:26:04.772Z,91.50
2019-06-07T21:28:35.476Z,91.60
2019-06-07T21:31:06.586Z,91.60
2019-06-07T21:33:37.288Z,91.80
2019-06-07T21:36:08.031Z,92.10
2019-06-07T21:38:38.786Z,92.40
2019-06-07T21:41:10.600Z,92.30
2019-06-07T21:43:41.902Z,92.40
2019-06-07T21:46:19.962Z,92.70
2019-06-07T21:48:44.600Z,92.70
2019-06-07T21:51:15.232Z,93.10
2019-06-07T21:53:46.045Z,93.00
2019-06-07T21:56:16.942Z,92.90
2019-06-07T21:58:47.703Z,92.90
2019-06-07T22:01:28.301Z,92.80
2019-06-07T22:03:59.169Z,92.80
2019-06-07T22:06:30.274Z,92.90
2019-06-07T22:09:01.054Z,93.10
2019-06-07T22:11:33.694Z,93.20
2019-06-07T22:14:06.251Z,93.20
2019-06-07T22:16:37.095Z,93.40
2019-06-07T22:19:08.685Z,93.50
2019-06-07T22:21:39.545Z,93.70
2019-06-07T22:24:10.995Z,93.60
2019-06-07T22:26:41.842Z,93.70
2019-06-07T22:29:12.706Z,93.50
2019-06-07T22:31:43.299Z,93.80
2019-06-07T22:34:15.076Z,93.80
2019-06-07T22:36:45.778Z,93.80
2019-06-07T22:39:16.332Z,93.90
2019-06-07T22:41:47.002Z,94.30
2019-06-07T22:44:19.332Z,94.60
2019-06-07T22:46:50.201Z,94.70
2019-06-07T22:49:20.908Z,95.00
2019-06-07T22:51:51.544Z,95.10
2019-06-07T22:54:22.437Z,95.10
2019-06-07T22:57:04.460Z,95.20
2019-06-07T22:59:35.234Z,95.20
2019-06-07T23:02:05.824Z,95.30
2019-06-07T23:04:36.718Z,95.40
2019-06-07T23:07:08.878Z,95.50
2019-06-07T23:09:39.612Z,95.60
2019-06-07T23:12:11.182Z,95.70
2019-06-07T23:14:41.914Z,95.70
2019-06-07T23:17:13.880Z,95.80
2019-06-07T23:19:46.314Z,95.80
2019-06-07T23:22:17.912Z,95.80
2019-06-07T23:24:48.902Z,95.80
2019-06-07T23:27:20.792Z,95.80
2019-06-07T23:29:52.471Z,96.00
2019-06-07T23:32:23.287Z,96.20
2019-06-07T23:34:54.034Z,96.30
2019-06-07T23:37:24.918Z,96.40
2019-06-07T23:39:55.537Z,96.30
2019-06-07T23:42:26.440Z,96.30
2019-06-07T23:44:57.057Z,96.40
2019-06-07T23:47:27.826Z,96.40
2019-06-07T23:49:58.533Z,96.30
2019-06-07T23:52:29.205Z,96.40
2019-06-07T23:54:59.908Z,96.50
2019-06-07T23:57:30.877Z,96.50
